KSMX/SMX METAR and TAF weather

Enter ICAO airport designator
Station Type Date Time Source
KSMX METAR 2021/01/27 12:51 UTC NOAA

KSMX 271251Z AUTO 15016G24KT 6SM RA OVC039 09/06 A2997 RMK AO2 SLP152 P0006 T00890061 $


Station Type Date Time Source
KSMX Decoded METAR 2021/01/27 12:51 UTC NOAA

SANTA MARIA PUBLIC AIRPORT, CA, United States (KSMX) 34-54N 120-28W 74M
Jan 27, 2021 - 07:51 AM EST / 2021.01.27 1251 UTC
Wind: from the SSE (150 degrees) at 18 MPH (16 KT) gusting to 28 MPH (24 KT):0
Visibility: 6 mile(s):0
Sky conditions: overcast
Weather: rain
Precipitation last hour: 0.06 inches
Temperature: 48.0 F (8.9 C)
Dew Point: 43.0 F (6.1 C)
Relative Humidity: 82%
Pressure (altimeter): 29.97 in. Hg (1014 hPa)
ob: KSMX 271251Z AUTO 15016G24KT 6SM RA OVC039 09/06 A2997 RMK AO2 SLP152 P0006 T00890061
cycle: 13

Station Type Date Time Source
KSMX TAF 2021/01/27 12:03 UTC NOAA

TAF KSMX 271200Z 2712/2812 15015G25KT 6SM -RA BR SCT025 OVC040
FM271500 16020G30KT 5SM -RA BR BKN025 OVC040
FM272100 17015G25KT 4SM RA BR OVC025
FM280400 15025G35KT 4SM -RA BR OVC250

Example: see airport list